createdAt,value
2023-02-07T00:01:26.752Z,91.41
2023-02-07T00:03:56.605Z,91.26
2023-02-07T00:06:27.507Z,91.07
2023-02-07T00:08:57.128Z,92.12
2023-02-07T00:11:28.652Z,92.17
2023-02-07T00:14:00.556Z,92.16
2023-02-07T00:16:29.179Z,92.13
2023-02-07T00:19:00.301Z,92.61
2023-02-07T00:21:30.214Z,92.34
2023-02-07T00:23:59.269Z,92.69
2023-02-07T00:26:29.985Z,93.07
2023-02-07T00:28:59.109Z,93.16
2023-02-07T00:31:29.123Z,93.20
2023-02-07T00:34:00.957Z,93.20
2023-02-07T00:36:31.220Z,93.73
2023-02-07T00:39:02.864Z,93.54
2023-02-07T00:41:33.017Z,93.05
2023-02-07T00:44:02.073Z,93.75
2023-02-07T00:46:30.753Z,93.67
2023-02-07T00:48:59.361Z,93.58
2023-02-07T00:51:29.336Z,94.03
2023-02-07T00:53:58.809Z,93.98
2023-02-07T00:56:29.836Z,94.14
2023-02-07T00:59:01.607Z,94.02
2023-02-07T01:01:33.422Z,94.14
2023-02-07T01:04:02.424Z,94.46
2023-02-07T01:06:33.782Z,94.67
2023-02-07T01:09:04.478Z,94.31
2023-02-07T01:11:36.291Z,94.35
2023-02-07T01:14:07.567Z,94.08
2023-02-07T01:16:37.439Z,94.41
2023-02-07T01:19:09.047Z,94.76
2023-02-07T01:21:37.947Z,94.93
2023-02-07T01:24:07.410Z,94.80
2023-02-07T01:26:35.825Z,95.57
2023-02-07T01:29:07.878Z,94.91
2023-02-07T01:31:36.778Z,95.26
2023-02-07T01:34:05.883Z,95.01
2023-02-07T01:36:38.180Z,94.76
2023-02-07T01:39:08.084Z,95.31
2023-02-07T01:41:36.814Z,95.35
2023-02-07T01:44:09.558Z,95.07
2023-02-07T01:46:37.974Z,95.05
2023-02-07T01:49:14.593Z,95.22
2023-02-07T01:51:46.827Z,95.26
2023-02-07T01:54:17.251Z,95.46
2023-02-07T01:56:48.301Z,96.09
2023-02-07T01:59:18.796Z,96.43
2023-02-07T02:01:50.587Z,95.77
2023-02-07T02:04:21.535Z,95.74
2023-02-07T02:06:51.847Z,95.77
2023-02-07T02:09:20.142Z,96.07
2023-02-07T02:12:14.949Z,95.88
2023-02-07T02:15:04.626Z,96.36
2023-02-07T02:17:43.730Z,96.21
2023-02-07T02:20:49.148Z,95.95
2023-02-07T02:23:24.907Z,96.01
2023-02-07T02:26:33.963Z,97.20
2023-02-07T02:29:38.549Z,96.54
2023-02-07T02:32:35.935Z,96.95
2023-02-07T02:35:14.559Z,96.32
2023-02-07T02:37:53.073Z,96.27
2023-02-07T02:40:29.295Z,96.24
2023-02-07T02:43:06.217Z,96.83
2023-02-07T02:45:40.053Z,96.61
2023-02-07T02:48:13.124Z,96.86
2023-02-07T02:50:48.316Z,97.41
2023-02-07T02:53:18.638Z,96.98
2023-02-07T02:56:06.448Z,96.28
2023-02-07T02:58:49.627Z,96.67
2023-02-07T03:01:25.172Z,96.38
2023-02-07T03:04:06.907Z,96.86
2023-02-07T03:06:50.641Z,96.39
2023-02-07T03:09:33.275Z,97.19
2023-02-07T03:12:11.063Z,96.68
2023-02-07T03:14:52.352Z,96.84
2023-02-07T03:17:28.095Z,97.36
2023-02-07T03:20:02.744Z,97.75
2023-02-07T03:22:35.493Z,97.20
2023-02-07T03:25:08.128Z,97.28
2023-02-07T03:27:38.932Z,97.54
2023-02-07T03:30:13.567Z,97.85
2023-02-07T03:32:52.361Z,97.72
2023-02-07T03:35:25.716Z,97.48
2023-02-07T03:37:59.819Z,97.53
2023-02-07T03:40:31.799Z,97.86
2023-02-07T03:43:05.768Z,97.58
2023-02-07T03:45:34.500Z,97.23
2023-02-07T03:48:05.449Z,97.54
2023-02-07T03:50:34.973Z,97.26
2023-02-07T03:53:06.313Z,97.55
2023-02-07T03:55:34.983Z,97.97
2023-02-07T03:58:03.705Z,98.30
2023-02-07T04:00:32.648Z,98.24
2023-02-07T04:03:00.965Z,97.34
2023-02-07T04:05:29.438Z,97.60
2023-02-07T04:07:58.284Z,98.30
2023-02-07T04:10:30.032Z,97.49
2023-02-07T04:12:59.197Z,96.69
2023-02-07T04:15:27.875Z,95.91
2023-02-07T04:17:56.088Z,96.42
2023-02-07T04:20:24.821Z,96.09
2023-02-07T04:22:53.610Z,96.95
2023-02-07T04:25:24.342Z,96.52
2023-02-07T04:27:58.364Z,96.93
2023-02-07T04:30:27.216Z,97.18
2023-02-07T04:32:56.247Z,97.59
2023-02-07T04:35:25.815Z,97.09
2023-02-07T04:37:54.372Z,97.28
2023-02-07T04:40:23.845Z,97.52
2023-02-07T04:42:57.027Z,98.08
2023-02-07T04:45:28.478Z,96.80
2023-02-07T04:47:58.276Z,97.12
2023-02-07T04:50:27.456Z,97.72
2023-02-07T04:52:56.238Z,96.88
2023-02-07T04:55:27.731Z,97.02
2023-02-07T04:57:57.893Z,97.60
2023-02-07T05:00:26.344Z,97.31
2023-02-07T05:02:55.251Z,97.55
2023-02-07T05:05:24.712Z,97.92
2023-02-07T05:07:53.101Z,98.02
2023-02-07T05:10:21.806Z,97.63
2023-02-07T05:12:50.233Z,97.11
2023-02-07T05:15:20.088Z,97.16
2023-02-07T05:17:49.099Z,97.64
2023-02-07T05:20:18.365Z,97.58
2023-02-07T05:22:48.993Z,97.17
2023-02-07T05:25:17.571Z,96.83
2023-02-07T05:27:46.318Z,97.21
2023-02-07T05:30:15.725Z,97.59
2023-02-07T05:33:04.923Z,97.16
2023-02-07T05:35:35.136Z,97.87
2023-02-07T05:38:04.694Z,97.49
2023-02-07T05:40:33.447Z,97.34
2023-02-07T05:43:01.691Z,97.46
2023-02-07T05:45:29.982Z,97.38
2023-02-07T05:48:00.519Z,97.58
2023-02-07T05:50:29.731Z,98.72
2023-02-07T05:52:58.009Z,97.38
2023-02-07T05:55:26.873Z,96.89
2023-02-07T05:57:56.308Z,96.18
2023-02-07T06:00:27.218Z,96.48
2023-02-07T06:02:56.180Z,97.24
2023-02-07T06:05:31.655Z,97.63
2023-02-07T06:08:01.213Z,97.68
2023-02-07T06:10:30.772Z,97.14
2023-02-07T06:12:59.102Z,96.66
2023-02-07T06:15:27.663Z,96.43
2023-02-07T06:17:55.861Z,96.68
2023-02-07T06:20:25.568Z,96.60
2023-02-07T06:22:55.722Z,97.00
2023-02-07T06:25:24.177Z,96.80
2023-02-07T06:27:52.798Z,96.99
2023-02-07T06:30:24.391Z,97.01
2023-02-07T06:32:52.638Z,97.27
2023-02-07T06:35:21.354Z,97.34
2023-02-07T06:37:54.138Z,97.33
2023-02-07T06:40:25.091Z,97.01
2023-02-07T06:42:53.696Z,96.89
2023-02-07T06:45:22.191Z,97.32
2023-02-07T06:47:50.548Z,96.63
2023-02-07T06:50:20.046Z,96.60
2023-02-07T06:52:48.793Z,96.02
2023-02-07T06:55:17.586Z,96.98
2023-02-07T06:57:47.602Z,96.85
2023-02-07T07:00:17.802Z,96.19
2023-02-07T07:02:47.875Z,96.05
2023-02-07T07:05:16.665Z,96.33
2023-02-07T07:07:45.533Z,95.80
2023-02-07T07:10:17.057Z,96.11
2023-02-07T07:12:46.884Z,96.44
2023-02-07T07:15:18.283Z,96.71
2023-02-07T07:17:46.934Z,96.35
2023-02-07T07:20:16.422Z,96.00
2023-02-07T07:22:44.662Z,96.62
2023-02-07T07:25:13.440Z,95.76
2023-02-07T07:27:41.855Z,95.83
2023-02-07T07:30:11.977Z,95.91
2023-02-07T07:32:42.483Z,95.27
2023-02-07T07:35:12.068Z,96.06
2023-02-07T07:37:41.857Z,95.70
2023-02-07T07:40:12.866Z,95.32
2023-02-07T07:42:43.268Z,95.93
2023-02-07T07:45:13.573Z,95.49
2023-02-07T07:47:43.454Z,94.13
2023-02-07T07:50:13.429Z,94.52
2023-02-07T07:52:43.347Z,94.15
2023-02-07T07:55:12.151Z,94.12
2023-02-07T07:57:40.546Z,94.41
2023-02-07T08:00:12.424Z,92.74
2023-02-07T08:02:48.974Z,91.95
2023-02-07T08:05:21.824Z,90.42
2023-02-07T08:07:51.784Z,90.51
2023-02-07T08:10:20.674Z,89.17
2023-02-07T08:12:50.535Z,88.82
2023-02-07T08:15:19.732Z,89.60
2023-02-07T08:17:49.581Z,90.77
2023-02-07T08:20:19.275Z,88.90
2023-02-07T08:22:48.076Z,88.03
2023-02-07T08:25:17.131Z,88.05
2023-02-07T08:27:46.174Z,87.72
2023-02-07T08:30:15.968Z,88.05
2023-02-07T08:32:45.414Z,87.50
2023-02-07T08:35:17.675Z,86.07
2023-02-07T08:37:49.869Z,86.37
2023-02-07T08:40:19.238Z,86.75
2023-02-07T08:42:48.223Z,87.00
2023-02-07T08:45:18.299Z,87.08
2023-02-07T08:47:47.674Z,85.12
2023-02-07T08:50:20.242Z,84.65
2023-02-07T08:52:50.407Z,83.24
2023-02-07T08:55:18.913Z,82.53
2023-02-07T08:57:48.515Z,81.68
2023-02-07T09:00:19.036Z,82.80
2023-02-07T09:02:48.291Z,82.07
2023-02-07T09:05:17.003Z,80.69
2023-02-07T09:07:48.737Z,79.44
2023-02-07T09:10:17.143Z,78.26
2023-02-07T09:12:45.445Z,79.20
2023-02-07T09:15:14.414Z,79.11
2023-02-07T09:17:45.895Z,77.21
2023-02-07T09:20:14.500Z,77.33
2023-02-07T09:23:00.856Z,76.80
2023-02-07T09:25:31.906Z,76.78
2023-02-07T09:28:00.694Z,75.30
2023-02-07T09:30:29.189Z,76.06
2023-02-07T09:32:59.633Z,75.62
2023-02-07T09:35:30.213Z,75.22
2023-02-07T09:37:58.975Z,73.45
2023-02-07T09:40:32.973Z,72.78
2023-02-07T09:43:11.741Z,72.77
2023-02-07T09:45:46.673Z,73.67
2023-02-07T09:48:19.872Z,72.94
2023-02-07T09:50:55.220Z,71.71
2023-02-07T09:53:28.076Z,70.05
2023-02-07T09:56:00.781Z,68.33
2023-02-07T09:58:40.835Z,67.05
2023-02-07T10:01:15.821Z,68.26
2023-02-07T10:03:50.464Z,66.54
2023-02-07T10:06:30.100Z,66.63
2023-02-07T10:09:04.203Z,66.86
2023-02-07T10:11:43.188Z,66.47
2023-02-07T10:14:28.416Z,64.94
2023-02-07T10:17:31.042Z,64.63
2023-02-07T10:20:18.540Z,64.08
2023-02-07T10:22:57.487Z,64.30
2023-02-07T10:25:37.384Z,64.07
2023-02-07T10:28:30.334Z,62.37
2023-02-07T10:31:04.100Z,63.16
2023-02-07T10:33:35.061Z,63.54
2023-02-07T10:36:06.600Z,63.29
2023-02-07T10:38:42.862Z,61.61
2023-02-07T10:41:17.971Z,63.63
2023-02-07T10:43:50.112Z,63.87
2023-02-07T10:46:22.080Z,63.05
2023-02-07T10:48:51.061Z,61.49
2023-02-07T10:51:29.130Z,62.96
2023-02-07T10:54:08.744Z,62.32
2023-02-07T10:56:42.988Z,61.95
2023-02-07T10:59:36.721Z,61.62
2023-02-07T11:02:39.829Z,61.37
2023-02-07T11:05:32.108Z,59.33
2023-02-07T11:08:02.732Z,59.61
2023-02-07T11:10:35.562Z,61.10
2023-02-07T11:13:06.302Z,60.40
2023-02-07T11:15:41.290Z,60.34
2023-02-07T11:18:24.808Z,60.00
2023-02-07T11:20:56.337Z,59.03
2023-02-07T11:23:25.592Z,58.57
2023-02-07T11:25:56.876Z,58.50
2023-02-07T11:28:30.374Z,57.89
2023-02-07T11:31:05.681Z,57.24
2023-02-07T11:33:36.681Z,56.39
2023-02-07T11:36:11.877Z,56.76
2023-02-07T11:38:42.893Z,56.06
2023-02-07T11:41:24.545Z,56.00
2023-02-07T11:43:55.887Z,55.49
2023-02-07T11:46:34.426Z,56.73
2023-02-07T11:49:04.674Z,56.02
2023-02-07T11:51:35.925Z,55.16
2023-02-07T11:54:08.850Z,56.43
2023-02-07T11:56:41.308Z,55.23
2023-02-07T11:59:16.573Z,56.42
2023-02-07T12:01:52.390Z,55.81
2023-02-07T12:04:26.188Z,55.85
2023-02-07T12:06:58.633Z,56.14
2023-02-07T12:09:35.121Z,56.50
2023-02-07T12:12:06.518Z,58.03
2023-02-07T12:14:40.796Z,57.04
2023-02-07T12:17:22.240Z,57.67
2023-02-07T12:19:54.056Z,57.23
2023-02-07T12:22:27.492Z,57.67
2023-02-07T12:25:02.688Z,58.24
2023-02-07T12:27:36.654Z,57.17
2023-02-07T12:30:17.760Z,57.90
2023-02-07T12:32:54.691Z,58.51
2023-02-07T12:35:29.388Z,57.51
2023-02-07T12:38:06.728Z,57.84
2023-02-07T12:40:40.787Z,57.24
2023-02-07T12:43:13.963Z,57.76
2023-02-07T12:45:58.781Z,58.57
2023-02-07T12:48:39.646Z,59.08
2023-02-07T12:51:23.910Z,57.80
2023-02-07T12:54:10.833Z,58.81
2023-02-07T12:56:51.132Z,57.70
2023-02-07T12:59:26.729Z,58.11
2023-02-07T13:02:06.072Z,58.32
2023-02-07T13:05:08.381Z,57.72
2023-02-07T13:07:53.101Z,57.07
2023-02-07T13:10:28.849Z,57.12
2023-02-07T13:13:03.786Z,57.72
2023-02-07T13:15:39.310Z,55.19
2023-02-07T13:18:15.771Z,55.63
2023-02-07T13:20:55.029Z,54.62
2023-02-07T13:23:26.921Z,54.55
2023-02-07T13:25:58.301Z,54.84
2023-02-07T13:28:30.497Z,55.02
2023-02-07T13:31:00.249Z,55.43
2023-02-07T13:33:36.013Z,54.30
2023-02-07T13:36:18.930Z,54.17
2023-02-07T13:38:57.788Z,54.62
2023-02-07T13:41:37.800Z,55.37
2023-02-07T13:44:16.114Z,55.18
2023-02-07T13:47:01.780Z,56.56
2023-02-07T13:49:43.493Z,58.50
2023-02-07T13:52:18.238Z,58.97
2023-02-07T13:55:00.414Z,58.97
2023-02-07T13:58:01.132Z,59.10
2023-02-07T14:00:31.719Z,59.58
2023-02-07T14:03:03.787Z,58.43
2023-02-07T14:05:33.191Z,58.60
2023-02-07T14:08:06.258Z,59.58
2023-02-07T14:10:47.428Z,58.93
2023-02-07T14:13:33.693Z,59.38
2023-02-07T14:16:09.169Z,59.66
2023-02-07T14:18:44.398Z,60.29
2023-02-07T14:21:27.261Z,60.41
2023-02-07T14:24:20.041Z,60.49
2023-02-07T14:27:00.613Z,60.83
2023-02-07T14:30:14.431Z,60.83
2023-02-07T14:32:47.187Z,60.86
2023-02-07T14:35:36.755Z,61.44
2023-02-07T14:38:21.536Z,61.54
2023-02-07T14:41:09.704Z,61.87
2023-02-07T14:44:07.085Z,62.16
2023-02-07T14:46:38.903Z,62.05
2023-02-07T14:49:15.647Z,62.12
2023-02-07T14:51:47.007Z,62.27
2023-02-07T14:54:21.388Z,62.87
2023-02-07T14:57:05.907Z,62.61
2023-02-07T14:59:41.127Z,63.47
2023-02-07T15:02:31.149Z,64.09
2023-02-07T15:05:10.756Z,64.19
2023-02-07T15:07:39.565Z,64.01
2023-02-07T15:10:16.049Z,64.66
2023-02-07T15:12:47.343Z,64.64
2023-02-07T15:15:21.675Z,65.28
2023-02-07T15:17:51.897Z,65.62
2023-02-07T15:20:24.443Z,65.74
2023-02-07T15:22:56.132Z,65.73
2023-02-07T15:25:26.784Z,65.80
2023-02-07T15:28:07.703Z,66.72
2023-02-07T15:30:38.366Z,67.82
2023-02-07T15:33:13.327Z,66.73
2023-02-07T15:35:42.153Z,66.95
2023-02-07T15:38:19.300Z,67.21
2023-02-07T15:40:48.546Z,67.46
2023-02-07T15:43:32.778Z,67.71
2023-02-07T15:46:08.646Z,68.03
2023-02-07T15:48:49.694Z,68.62
2023-02-07T15:51:23.184Z,68.51
2023-02-07T15:53:54.144Z,68.78
2023-02-07T15:56:22.621Z,69.08
2023-02-07T15:58:52.788Z,69.12
2023-02-07T16:01:25.747Z,69.79
2023-02-07T16:03:57.407Z,69.99
2023-02-07T16:06:29.096Z,70.10
2023-02-07T16:09:00.160Z,70.84
2023-02-07T16:11:41.535Z,71.70
2023-02-07T16:14:26.044Z,71.55
2023-02-07T16:16:56.289Z,71.01
2023-02-07T16:19:28.168Z,70.81
2023-02-07T16:22:03.887Z,70.93
2023-02-07T16:24:36.281Z,71.64
2023-02-07T16:27:05.651Z,72.35
2023-02-07T16:29:37.556Z,71.77
2023-02-07T16:32:07.818Z,71.80
2023-02-07T16:34:37.017Z,70.83
2023-02-07T16:37:10.148Z,70.48
2023-02-07T16:39:42.293Z,70.83
2023-02-07T16:42:16.433Z,71.46
2023-02-07T16:44:47.436Z,72.25
2023-02-07T16:47:16.287Z,72.89
2023-02-07T16:49:46.738Z,73.60
2023-02-07T16:52:15.146Z,73.30
2023-02-07T16:54:51.073Z,73.56
2023-02-07T16:57:21.453Z,74.37
2023-02-07T16:59:54.192Z,76.67
2023-02-07T17:02:27.059Z,76.75
2023-02-07T17:04:58.415Z,77.01
2023-02-07T17:07:26.671Z,76.27
2023-02-07T17:09:58.550Z,78.08
2023-02-07T17:12:27.399Z,76.81
2023-02-07T17:14:57.006Z,77.48
2023-02-07T17:17:25.992Z,78.22
2023-02-07T17:19:56.034Z,78.72
2023-02-07T17:22:24.709Z,78.71
2023-02-07T17:24:53.718Z,78.59
2023-02-07T17:27:22.139Z,78.23
2023-02-07T17:29:50.690Z,78.01
2023-02-07T17:32:21.698Z,78.06
2023-02-07T17:34:50.176Z,78.25
2023-02-07T17:37:18.869Z,79.36
2023-02-07T17:39:48.298Z,79.45
2023-02-07T17:42:18.536Z,79.52
2023-02-07T17:44:49.604Z,79.63
2023-02-07T17:47:20.376Z,80.17
2023-02-07T17:49:53.364Z,80.28
2023-02-07T17:52:25.278Z,80.37
2023-02-07T17:54:55.641Z,80.79
2023-02-07T17:57:25.962Z,81.69
2023-02-07T17:59:55.784Z,82.37
2023-02-07T18:02:27.736Z,82.30
2023-02-07T18:04:59.271Z,82.87
2023-02-07T18:07:31.042Z,83.61
2023-02-07T18:10:02.171Z,83.19
2023-02-07T18:12:32.304Z,84.45
2023-02-07T18:15:01.006Z,84.38
2023-02-07T18:17:29.803Z,85.16
2023-02-07T18:20:00.848Z,84.94
2023-02-07T18:22:30.291Z,84.98
2023-02-07T18:25:01.012Z,84.53
2023-02-07T18:27:31.845Z,84.89
2023-02-07T18:30:02.097Z,85.57
2023-02-07T18:32:34.439Z,85.74
2023-02-07T18:35:06.222Z,85.38
2023-02-07T18:37:36.077Z,85.99
2023-02-07T18:40:10.318Z,87.02
2023-02-07T18:42:42.304Z,86.50
2023-02-07T18:45:13.762Z,86.78
2023-02-07T18:47:43.446Z,87.34
2023-02-07T18:50:19.603Z,87.89
2023-02-07T18:52:51.033Z,86.79
2023-02-07T18:55:20.683Z,87.23
2023-02-07T18:57:51.709Z,86.83
2023-02-07T19:00:21.362Z,86.56
2023-02-07T19:02:51.863Z,87.07
2023-02-07T19:05:22.736Z,87.16
2023-02-07T19:07:55.525Z,87.83
2023-02-07T19:10:28.043Z,87.06
2023-02-07T19:12:57.843Z,86.68
2023-02-07T19:15:29.365Z,87.59
2023-02-07T19:18:01.217Z,88.22
2023-02-07T19:20:35.902Z,87.14
2023-02-07T19:23:04.971Z,86.72
2023-02-07T19:25:34.770Z,87.04
2023-02-07T19:28:04.855Z,88.16
2023-02-07T19:30:35.214Z,87.83
2023-02-07T19:33:04.867Z,87.73
2023-02-07T19:35:38.327Z,87.64
2023-02-07T19:38:13.418Z,87.26
2023-02-07T19:40:46.184Z,88.04
2023-02-07T19:43:16.487Z,88.43
2023-02-07T19:45:48.663Z,88.71
2023-02-07T19:48:18.308Z,89.06
2023-02-07T19:50:48.732Z,89.35
2023-02-07T19:53:21.513Z,89.43
2023-02-07T19:55:54.420Z,87.98
2023-02-07T19:58:24.075Z,87.13
2023-02-07T20:00:54.999Z,87.81
2023-02-07T20:03:28.599Z,88.07
2023-02-07T20:06:04.180Z,88.26
2023-02-07T20:08:35.858Z,88.28
2023-02-07T20:11:06.994Z,87.92
2023-02-07T20:13:37.964Z,87.58
2023-02-07T20:16:09.476Z,87.55
2023-02-07T20:18:39.729Z,88.25
2023-02-07T20:21:14.285Z,89.20
2023-02-07T20:23:46.617Z,89.11
2023-02-07T20:26:19.071Z,87.76
2023-02-07T20:28:51.696Z,86.42
2023-02-07T20:31:23.666Z,86.50
2023-02-07T20:33:54.650Z,86.96
2023-02-07T20:36:26.601Z,87.67
2023-02-07T20:38:58.404Z,86.29
2023-02-07T20:41:31.794Z,87.06
2023-02-07T20:44:05.059Z,88.31
2023-02-07T20:46:36.106Z,88.80
2023-02-07T20:49:07.662Z,88.47
2023-02-07T20:51:40.346Z,88.11
2023-02-07T20:54:09.244Z,88.25
2023-02-07T20:56:38.098Z,87.97
2023-02-07T20:59:07.137Z,88.08
2023-02-07T21:01:37.277Z,88.13
2023-02-07T21:04:07.342Z,88.09
2023-02-07T21:06:38.796Z,87.87
2023-02-07T21:09:08.009Z,88.14
2023-02-07T21:11:39.438Z,88.28
2023-02-07T21:14:11.185Z,88.59
2023-02-07T21:16:39.824Z,88.17
2023-02-07T21:19:09.956Z,88.39
2023-02-07T21:21:41.485Z,88.52
2023-02-07T21:24:11.819Z,88.54
2023-02-07T21:26:40.777Z,88.58
2023-02-07T21:29:11.943Z,88.25
2023-02-07T21:31:42.177Z,88.68
2023-02-07T21:34:13.781Z,88.97
2023-02-07T21:36:52.352Z,88.82
2023-02-07T21:39:34.816Z,89.28
2023-02-07T21:42:09.098Z,89.45
2023-02-07T21:44:38.692Z,89.63
2023-02-07T21:47:11.049Z,89.60
2023-02-07T21:49:43.384Z,89.40
2023-02-07T21:52:16.039Z,89.59
2023-02-07T21:54:46.479Z,89.89
2023-02-07T21:57:17.813Z,90.15
2023-02-07T21:59:50.311Z,90.36
2023-02-07T22:02:22.250Z,90.54
2023-02-07T22:04:52.126Z,90.21
2023-02-07T22:07:24.905Z,90.41
2023-02-07T22:09:54.838Z,90.49
2023-02-07T22:12:29.000Z,90.68
2023-02-07T22:15:05.242Z,90.84
2023-02-07T22:17:36.849Z,91.09
2023-02-07T22:20:07.376Z,91.23
2023-02-07T22:22:45.710Z,91.11
2023-02-07T22:25:19.927Z,91.42
2023-02-07T22:27:52.293Z,91.24
2023-02-07T22:30:23.564Z,91.19
2023-02-07T22:32:56.981Z,91.35
2023-02-07T22:35:30.219Z,91.07
2023-02-07T22:38:03.224Z,91.22
2023-02-07T22:40:34.113Z,91.11
2023-02-07T22:43:07.498Z,91.49
2023-02-07T22:45:41.871Z,91.56
2023-02-07T22:48:11.519Z,91.20
2023-02-07T22:50:45.022Z,91.09
2023-02-07T22:53:21.063Z,91.23
2023-02-07T22:56:08.884Z,91.54
2023-02-07T22:58:43.475Z,92.05
2023-02-07T23:01:23.960Z,92.09
2023-02-07T23:03:55.547Z,92.11
2023-02-07T23:06:29.946Z,92.09
2023-02-07T23:09:11.313Z,92.10
2023-02-07T23:11:43.208Z,91.73
2023-02-07T23:14:16.424Z,91.65
2023-02-07T23:16:48.155Z,91.65
2023-02-07T23:19:21.412Z,91.71
2023-02-07T23:21:51.033Z,91.77
2023-02-07T23:24:22.775Z,91.70
2023-02-07T23:26:51.144Z,91.79
2023-02-07T23:29:21.370Z,91.65
2023-02-07T23:32:00.666Z,91.36
2023-02-07T23:34:30.598Z,91.23
2023-02-07T23:37:00.974Z,91.32
2023-02-07T23:39:32.205Z,90.88
2023-02-07T23:42:10.651Z,90.33
2023-02-07T23:44:41.053Z,90.19
2023-02-07T23:47:11.564Z,89.99
2023-02-07T23:49:42.315Z,89.85
2023-02-07T23:52:11.416Z,89.65
2023-02-07T23:54:43.290Z,88.97
2023-02-07T23:57:14.504Z,88.95
2023-02-07T23:59:46.241Z,88.28
